Time;durP1;ratioP1;P1;durP2;ratioP2;P2;SDS_P1;SDS_P2;PMS_P1;PMS_P2;Temp;Humidity;BMP_temperature;BMP_pressure;BME280_temperature;BME280_humidity;BME280_pressure;Samples;Min_cycle;Max_cycle;Signal;HPM_P1;HPM_P2
2023/01/29 00:00:21;;;;;;;17.63;7.60;;;;;;;-145.69;100.00;52725.63;5116483;28;20222;-80
2023/01/29 00:02:48;;;;;;;14.50;7.37;;;;;;;-145.69;100.00;52707.78;5116383;28;20201;-79
2023/01/29 00:05:15;;;;;;;13.77;7.23;;;;;;;-145.69;100.00;52717.69;5115991;28;20279;-81
2023/01/29 00:07:41;;;;;;;15.13;6.23;;;;;;;-145.69;100.00;52705.81;5095924;28;20209;-81
2023/01/29 00:10:10;;;;;;;12.37;6.60;;;;;;;-145.69;100.00;52725.63;5095957;28;20257;-81
2023/01/29 00:12:36;;;;;;;11.53;5.67;;;;;;;-145.69;100.00;52731.56;5095648;28;20681;-81
2023/01/29 00:15:03;;;;;;;9.73;5.67;;;;;;;-145.69;100.00;52715.72;5095783;28;20209;-79
2023/01/29 00:17:31;;;;;;;12.03;6.07;;;;;;;-145.69;100.00;52689.97;5095841;28;20198;-80
2023/01/29 00:19:57;;;;;;;11.50;5.97;;;;;;;-145.69;100.00;52717.69;5095949;28;20596;-78
2023/01/29 00:22:24;;;;;;;14.87;5.60;;;;;;;-145.69;100.00;52761.25;5102394;28;20201;-80
2023/01/29 00:24:50;;;;;;;10.20;5.53;;;;;;;-145.69;100.00;52737.50;5108399;28;20190;-80
2023/01/29 00:27:17;;;;;;;12.93;6.73;;;;;;;-145.69;100.00;52737.50;5095764;28;20209;-80
2023/01/29 00:30:01;;;;;;;14.40;6.40;;;;;;;-145.69;100.00;52691.94;5095564;28;20217;-79
2023/01/29 00:32:27;;;;;;;14.97;7.20;;;;;;;-145.69;100.00;52686.00;5095561;28;20206;-77
2023/01/29 00:34:55;;;;;;;12.67;7.20;;;;;;;-145.69;100.00;52727.59;5097136;28;20206;-79
2023/01/29 00:37:22;;;;;;;15.90;8.13;;;;;;;-145.69;100.00;52709.78;5116009;28;20204;-79
2023/01/29 00:39:49;;;;;;;17.80;8.47;;;;;;;-145.69;100.00;52743.44;5116099;28;20225;-81
2023/01/29 00:44:58;;;;;;;15.17;7.30;;;;;;;-145.69;100.00;52717.69;5073588;28;20320;-79
2023/01/29 00:47:32;;;;;;;15.53;6.73;;;;;;;-145.69;100.00;52729.56;5095403;28;20289;-78
2023/01/29 00:50:00;;;;;;;13.73;7.00;;;;;;;-145.69;100.00;52721.66;5094842;28;20205;-79
2023/01/29 00:52:27;;;;;;;13.03;6.90;;;;;;;-145.69;100.00;52753.34;5095339;28;20205;-79
2023/01/29 00:54:55;;;;;;;12.63;6.00;;;;;;;-145.69;100.00;52721.66;5095033;28;20213;-80
2023/01/29 00:57:22;;;;;;;10.37;5.87;;;;;;;-145.69;100.00;52725.63;5094728;28;20204;-79
2023/01/29 00:59:48;;;;;;;13.10;6.80;;;;;;;-145.69;100.00;52699.88;5094631;28;20217;-79
2023/01/29 01:05:01;;;;;;;11.60;6.30;;;;;;;-145.69;100.00;52717.69;5114831;28;20197;-79
2023/01/29 01:07:28;;;;;;;11.23;6.37;;;;;;;-145.69;100.00;52721.66;5114107;28;20288;-80
2023/01/29 01:12:39;;;;;;;12.23;6.73;;;;;;;-145.69;100.00;52725.63;5115170;28;20199;-79
2023/01/29 01:15:06;;;;;;;14.53;7.40;;;;;;;-145.69;100.00;52751.34;5115265;28;20208;-79
2023/01/29 01:17:33;;;;;;;12.07;6.13;;;;;;;-145.69;100.00;52713.72;5115034;27;20198;-79
2023/01/29 01:20:00;;;;;;;13.77;6.83;;;;;;;-145.69;100.00;52725.63;5114216;28;20726;-78
2023/01/29 01:22:27;;;;;;;12.57;6.73;;;;;;;-145.69;100.00;52745.41;5115328;28;20224;-79
2023/01/29 01:24:53;;;;;;;16.23;7.47;;;;;;;-145.69;100.00;52701.84;5114667;28;20681;-79
2023/01/29 01:27:20;;;;;;;12.37;6.37;;;;;;;-145.69;100.00;52749.38;5114519;28;20204;-78
2023/01/29 01:29:47;;;;;;;12.80;6.70;;;;;;;-145.69;100.00;52733.53;5114861;28;20198;-79
2023/01/29 01:32:14;;;;;;;15.73;7.07;;;;;;;-145.69;100.00;52715.72;5114879;28;20209;-79
2023/01/29 01:34:41;;;;;;;14.47;7.40;;;;;;;-145.69;100.00;52733.53;5114261;28;20269;-81
2023/01/29 01:37:09;;;;;;;12.37;6.77;;;;;;;-145.69;100.00;52676.09;5114625;28;20194;-80
2023/01/29 01:39:35;;;;;;;13.17;6.73;;;;;;;-145.69;100.00;52686.00;5114448;28;20639;-79
2023/01/29 01:42:02;;;;;;;12.93;7.37;;;;;;;-145.69;100.00;52715.72;5114567;28;20229;-80
2023/01/29 01:44:55;;;;;;;13.37;6.43;;;;;;;-145.69;100.00;52713.72;5113589;28;20690;-79
2023/01/29 01:47:26;;;;;;;12.47;6.70;;;;;;;-145.69;100.00;52747.41;5114784;28;20201;-81
2023/01/29 01:49:54;;;;;;;16.07;7.13;;;;;;;-145.69;100.00;52747.41;5114630;28;20300;-79
2023/01/29 01:52:22;;;;;;;12.30;6.37;;;;;;;-145.69;100.00;52670.16;5114268;28;20193;-80
2023/01/29 01:54:50;;;;;;;11.17;5.97;;;;;;;-145.69;100.00;52737.50;5113337;28;20198;-79
2023/01/29 01:57:23;;;;;;;12.10;6.50;;;;;;;-145.69;100.00;52733.53;5114318;28;20201;-80
2023/01/29 01:59:56;;;;;;;10.33;5.83;;;;;;;-145.69;100.00;52697.88;5113949;28;20196;-79
2023/01/29 02:10:45;;;;;;;10.77;5.90;;;;;;;-145.69;100.00;52733.53;5113507;28;20200;-79
2023/01/29 02:13:15;;;;;;;12.00;6.13;;;;;;;-145.69;100.00;52725.63;5113901;28;20206;-78
2023/01/29 02:15:45;;;;;;;12.97;5.73;;;;;;;-145.69;100.00;52749.38;5113752;28;20197;-79
2023/01/29 02:18:12;;;;;;;9.50;5.37;;;;;;;-145.69;100.00;52733.53;5113415;28;20197;-79
2023/01/29 02:20:42;;;;;;;9.33;4.90;;;;;;;-145.69;100.00;52705.81;5113311;28;20217;-79
2023/01/29 02:23:38;;;;;;;9.93;5.10;;;;;;;-145.69;100.00;52729.56;5112613;28;20807;-81
2023/01/29 02:26:27;;;;;;;9.97;5.40;;;;;;;-145.69;100.00;52701.84;5113913;28;20205;-79
2023/01/29 02:29:21;;;;;;;11.43;5.63;;;;;;;-145.69;100.00;52687.97;5109501;28;20194;-79
2023/01/29 02:31:56;;;;;;;10.47;4.90;;;;;;;-145.69;100.00;52747.41;5113600;28;20276;-80
2023/01/29 02:37:27;;;;;;;9.07;5.33;;;;;;;-145.69;100.00;52701.84;5104035;28;20204;-80
2023/01/29 02:40:03;;;;;;;9.93;5.13;;;;;;;-145.69;100.00;52727.59;5113695;28;20194;-80
2023/01/29 02:42:35;;;;;;;8.93;5.63;;;;;;;-145.69;100.00;52713.72;5113534;28;20617;-79
2023/01/29 02:45:11;;;;;;;9.27;5.20;;;;;;;-145.69;100.00;52697.88;5113465;28;20232;-80
2023/01/29 02:47:42;;;;;;;10.33;5.40;;;;;;;-145.69;100.00;52737.50;5113455;28;20205;-82
2023/01/29 02:50:16;;;;;;;10.63;5.53;;;;;;;-145.69;100.00;52717.69;5113755;28;20212;-80
2023/01/29 02:52:50;;;;;;;11.07;5.03;;;;;;;-145.69;100.00;52731.56;5113754;28;20631;-80
2023/01/29 02:55:21;;;;;;;10.23;5.40;;;;;;;-145.69;100.00;52682.03;5112787;28;20257;-79
2023/01/29 02:57:51;;;;;;;7.90;4.90;;;;;;;-145.69;100.00;52771.16;5113510;28;20556;-80
2023/01/29 03:00:22;;;;;;;9.50;5.43;;;;;;;-145.69;100.00;52713.72;5113434;28;20197;-79
2023/01/29 03:02:55;;;;;;;9.90;5.03;;;;;;;-145.69;100.00;52741.47;5113784;28;20202;-79
2023/01/29 03:05:28;;;;;;;9.13;4.83;;;;;;;-145.69;100.00;52686.00;5112102;28;20552;-81
2023/01/29 03:08:00;;;;;;;10.57;5.37;;;;;;;-145.69;100.00;52699.88;5113266;28;20664;-80
2023/01/29 03:10:35;;;;;;;9.33;5.67;;;;;;;-145.69;100.00;52727.59;5113203;28;20208;-81
2023/01/29 03:13:06;;;;;;;11.97;5.60;;;;;;;-145.69;100.00;52751.34;5113270;28;20230;-79
2023/01/29 03:15:41;;;;;;;9.47;5.60;;;;;;;-145.69;100.00;52729.56;5112785;28;20528;-79
2023/01/29 03:18:11;;;;;;;8.43;4.77;;;;;;;-145.69;100.00;52701.84;5113305;28;20205;-81
2023/01/29 03:20:47;;;;;;;9.23;5.10;;;;;;;-145.69;100.00;52723.63;5113231;28;20583;-80
2023/01/29 03:23:22;;;;;;;9.13;4.70;;;;;;;-145.69;100.00;52674.13;5112318;28;20607;-79
2023/01/29 03:34:15;;;;;;;8.97;5.10;;;;;;;-145.69;100.00;52741.47;5113140;28;20701;-79
2023/01/29 03:36:48;;;;;;;9.33;4.60;;;;;;;-145.69;100.00;52711.75;5112866;28;20204;-79
2023/01/29 03:39:17;;;;;;;6.53;4.47;;;;;;;-145.69;100.00;52729.56;5113234;28;20235;-79
2023/01/29 03:41:49;;;;;;;8.57;4.73;;;;;;;-145.69;100.00;52729.56;5112625;28;20695;-79
2023/01/29 03:44:19;;;;;;;7.87;4.83;;;;;;;-145.69;100.00;52751.34;5112896;28;20208;-79
2023/01/29 03:46:52;;;;;;;8.60;4.80;;;;;;;-145.69;100.00;52747.41;5112878;28;20207;-79
2023/01/29 03:49:25;;;;;;;9.67;5.40;;;;;;;-145.69;100.00;52707.78;5112706;28;20197;-79
2023/01/29 03:52:00;;;;;;;7.57;4.83;;;;;;;-145.69;100.00;52741.47;5112860;28;20200;-79
2023/01/29 03:54:39;;;;;;;8.97;4.90;;;;;;;-145.69;100.00;52713.72;5112999;28;20212;-79
2023/01/29 03:57:14;;;;;;;8.07;4.80;;;;;;;-145.69;100.00;52705.81;5112914;28;20198;-79
2023/01/29 03:59:48;;;;;;;8.33;4.60;;;;;;;-145.69;100.00;52731.56;5112405;28;20209;-79
2023/01/29 04:02:26;;;;;;;6.73;4.47;;;;;;;-145.69;100.00;52717.69;5112766;28;20233;-79
2023/01/29 04:04:57;;;;;;;8.40;4.50;;;;;;;-145.69;100.00;52737.50;5112949;28;20254;-79
2023/01/29 04:07:25;;;;;;;10.07;4.73;;;;;;;-145.69;100.00;52701.84;5112736;28;20280;-80
2023/01/29 04:09:56;;;;;;;7.83;4.60;;;;;;;-145.69;100.00;52701.84;5112397;28;20204;-80
2023/01/29 04:12:26;;;;;;;7.60;4.70;;;;;;;-145.69;100.00;52761.25;5112726;28;20201;-79
2023/01/29 04:14:55;;;;;;;7.00;4.57;;;;;;;-145.69;100.00;52755.31;5112455;28;20201;-79
2023/01/29 04:17:28;;;;;;;8.63;4.30;;;;;;;-145.69;100.00;52733.53;5113585;28;20201;-78
2023/01/29 04:19:55;;;;;;;9.13;5.00;;;;;;;-145.69;100.00;52719.66;5116450;28;20580;-80
2023/01/29 04:22:26;;;;;;;8.40;4.77;;;;;;;-145.69;100.00;52745.41;5116348;28;20232;-82
2023/01/29 04:24:52;;;;;;;6.87;4.30;;;;;;;-145.69;100.00;52745.41;5102947;28;20212;-79
2023/01/29 04:27:29;;;;;;;8.27;4.70;;;;;;;-145.69;100.00;52709.78;5104030;28;20190;-80
2023/01/29 04:30:13;;;;;;;8.53;4.67;;;;;;;-145.69;100.00;52721.66;5116271;28;20227;-79
2023/01/29 04:32:54;;;;;;;8.13;5.20;;;;;;;-145.69;100.00;52729.56;5115916;28;20530;-81
2023/01/29 04:35:29;;;;;;;13.17;5.40;;;;;;;-145.69;100.00;52743.44;5115494;28;20200;-79
2023/01/29 04:38:07;;;;;;;9.20;5.23;;;;;;;-145.69;100.00;52713.72;5115755;28;20204;-81
2023/01/29 04:40:43;;;;;;;9.07;4.70;;;;;;;-145.69;100.00;52709.78;5116052;28;20230;-82
2023/01/29 04:43:16;;;;;;;8.10;4.50;;;;;;;-145.69;100.00;52721.66;5115848;28;20196;-82
2023/01/29 04:45:54;;;;;;;9.03;4.73;;;;;;;-145.69;100.00;52741.47;5115055;28;20233;-81
2023/01/29 04:48:27;;;;;;;8.38;5.53;;;;;;;-145.69;100.00;52715.72;5093847;28;20912;-81
2023/01/29 04:50:58;;;;;;;7.80;4.67;;;;;;;-145.69;100.00;52703.81;5108320;28;20197;-81
2023/01/29 04:53:35;;;;;;;8.20;4.87;;;;;;;-145.69;100.00;52731.56;5116064;28;20284;-81
2023/01/29 04:56:09;;;;;;;7.93;5.03;;;;;;;-145.69;100.00;52727.59;5115370;28;20202;-80
2023/01/29 04:58:41;;;;;;;9.13;4.27;;;;;;;-145.69;100.00;52729.56;5115553;28;20551;-79
2023/01/29 05:01:12;;;;;;;9.43;4.70;;;;;;;-145.69;100.00;52735.50;5115553;28;20595;-81
2023/01/29 05:03:43;;;;;;;10.30;4.90;;;;;;;-145.69;100.00;52709.78;5115565;28;20220;-81
2023/01/29 05:06:11;;;;;;;6.53;4.03;;;;;;;-145.69;100.00;52783.06;5114523;28;20189;-81
2023/01/29 05:08:39;;;;;;;6.50;3.63;;;;;;;-145.69;100.00;52739.47;5114905;28;20670;-81
2023/01/29 05:11:07;;;;;;;7.20;3.73;;;;;;;-145.69;100.00;52729.56;5115115;28;20205;-79
2023/01/29 05:13:36;;;;;;;6.10;3.40;;;;;;;-145.69;100.00;52729.56;5115212;28;20202;-81
2023/01/29 05:16:08;;;;;;;7.33;3.80;;;;;;;-145.69;100.00;52686.00;5115411;28;20198;-82
2023/01/29 05:18:35;;;;;;;6.77;3.87;;;;;;;-145.69;100.00;52731.56;5115212;28;20199;-82
2023/01/29 05:21:07;;;;;;;6.20;3.67;;;;;;;-145.69;100.00;52757.31;5115016;28;20197;-81
2023/01/29 05:23:33;;;;;;;8.23;4.47;;;;;;;-145.69;100.00;52737.50;5115068;28;20246;-81
2023/01/29 05:26:00;;;;;;;8.47;4.77;;;;;;;-145.69;100.00;52725.63;5114724;28;20201;-82
2023/01/29 05:28:25;;;;;;;7.30;3.87;;;;;;;-145.69;100.00;52721.66;5114371;28;20212;-80
2023/01/29 05:30:54;;;;;;;7.43;4.00;;;;;;;-145.69;100.00;52725.63;5114465;28;20202;-81
2023/01/29 05:33:22;;;;;;;6.13;3.87;;;;;;;-145.69;100.00;52715.72;5114676;28;20674;-81
2023/01/29 05:35:49;;;;;;;5.67;3.73;;;;;;;-145.69;100.00;52711.75;5114587;28;20683;-81
2023/01/29 05:38:17;;;;;;;6.63;4.03;;;;;;;-145.69;100.00;52713.72;5114413;28;20193;-81
2023/01/29 05:40:44;;;;;;;6.23;3.73;;;;;;;-145.69;100.00;52721.66;5114611;28;20194;-82
2023/01/29 05:43:16;;;;;;;7.23;3.90;;;;;;;-145.69;100.00;52711.75;5114547;28;20232;-82
2023/01/29 05:45:43;;;;;;;6.30;3.83;;;;;;;-145.69;100.00;52741.47;5114466;28;20709;-82
2023/01/29 05:48:10;;;;;;;6.03;4.20;;;;;;;-145.69;100.00;52701.84;5114572;28;20197;-81
2023/01/29 05:50:36;;;;;;;7.07;3.30;;;;;;;-145.69;100.00;52735.50;5114260;28;20205;-81
2023/01/29 05:53:03;;;;;;;6.70;4.57;;;;;;;-145.69;100.00;52729.56;5114199;28;20201;-81
2023/01/29 05:55:31;;;;;;;8.00;4.70;;;;;;;-145.69;100.00;52733.53;5114113;28;20640;-81
2023/01/29 05:57:57;;;;;;;8.23;4.20;;;;;;;-145.69;100.00;52745.41;5114581;27;20201;-82
2023/01/29 06:00:24;;;;;;;7.53;4.20;;;;;;;-145.69;100.00;52721.66;5114458;28;20205;-82
2023/01/29 06:02:50;;;;;;;8.60;4.20;;;;;;;-145.69;100.00;52745.41;5114110;28;20580;-82
2023/01/29 06:05:17;;;;;;;6.20;3.37;;;;;;;-145.69;100.00;52705.81;5113607;28;20197;-80
2023/01/29 06:07:45;;;;;;;5.33;3.23;;;;;;;-145.69;100.00;52719.66;5113742;28;20199;-80
2023/01/29 06:10:13;;;;;;;5.80;3.23;;;;;;;-145.69;100.00;52727.59;5114144;28;20225;-80
2023/01/29 06:12:41;;;;;;;5.40;3.40;;;;;;;-145.69;100.00;52739.47;5114220;28;20194;-81
2023/01/29 06:15:08;;;;;;;5.80;3.77;;;;;;;-145.69;100.00;52713.72;5113931;28;20569;-81
2023/01/29 06:17:35;;;;;;;4.90;3.37;;;;;;;-145.69;100.00;52767.19;5113803;28;20206;-81
2023/01/29 06:20:02;;;;;;;4.97;3.40;;;;;;;-145.69;100.00;52721.66;5113503;28;20197;-81
2023/01/29 06:22:29;;;;;;;6.17;3.57;;;;;;;-145.69;100.00;52686.00;5113811;28;20221;-81
2023/01/29 06:24:55;;;;;;;4.73;3.07;;;;;;;-145.69;100.00;52719.66;5111870;28;20205;-81
2023/01/29 06:27:22;;;;;;;4.97;3.20;;;;;;;-145.69;100.00;52733.53;5113782;28;20213;-81
2023/01/29 06:29:49;;;;;;;5.53;3.20;;;;;;;-145.69;100.00;52723.63;5113513;28;20189;-81
2023/01/29 06:32:16;;;;;;;4.70;2.97;;;;;;;-145.69;100.00;52717.69;5113474;28;20201;-81
2023/01/29 06:34:42;;;;;;;5.77;3.40;;;;;;;-145.69;100.00;52777.09;5112901;28;20197;-79
2023/01/29 06:37:09;;;;;;;8.27;3.90;;;;;;;-145.69;100.00;52725.63;5113602;28;20202;-81
2023/01/29 06:39:35;;;;;;;6.00;2.90;;;;;;;-145.69;100.00;52735.50;5112268;28;20553;-82
2023/01/29 06:42:02;;;;;;;4.10;2.50;;;;;;;-145.69;100.00;52745.41;5113242;28;20233;-82
2023/01/29 06:44:28;;;;;;;7.70;3.23;;;;;;;-145.69;100.00;52741.47;5112724;28;20666;-81
2023/01/29 06:46:56;;;;;;;6.00;3.50;;;;;;;-145.69;100.00;52765.22;5113673;28;20197;-82
2023/01/29 06:49:23;;;;;;;4.77;3.10;;;;;;;-145.69;100.00;52733.53;5113559;28;20599;-82
2023/01/29 06:51:49;;;;;;;4.10;2.97;;;;;;;-145.69;100.00;52721.66;5113610;28;20202;-81
2023/01/29 06:54:16;;;;;;;7.70;3.40;;;;;;;-145.69;100.00;52729.56;5113327;28;20202;-81
2023/01/29 06:56:42;;;;;;;4.57;3.50;;;;;;;-145.69;100.00;52733.53;5113351;28;20652;-81
2023/01/29 06:59:10;;;;;;;6.17;3.23;;;;;;;-145.69;100.00;52717.69;5113111;28;20216;-81
2023/01/29 07:01:41;;;;;;;8.40;4.17;;;;;;;-145.69;100.00;52767.19;5113385;28;20227;-81
2023/01/29 07:04:08;;;;;;;6.70;3.67;;;;;;;-145.69;100.00;52709.78;5113318;28;20291;-81
2023/01/29 07:06:35;;;;;;;6.73;3.60;;;;;;;-145.69;100.00;52741.47;5113319;28;20551;-81
2023/01/29 07:09:02;;;;;;;6.07;3.97;;;;;;;-145.69;100.00;52697.88;5113213;28;20194;-81
2023/01/29 07:11:29;;;;;;;6.73;3.90;;;;;;;-145.69;100.00;52745.41;5113237;28;20209;-81
2023/01/29 07:13:56;;;;;;;5.03;3.60;;;;;;;-145.69;100.00;52693.94;5112921;28;20205;-81
2023/01/29 07:16:25;;;;;;;7.07;4.37;;;;;;;-145.69;100.00;52735.50;5112714;28;20190;-81
2023/01/29 07:18:52;;;;;;;7.63;4.47;;;;;;;-145.69;100.00;52719.66;5113172;28;20209;-81
2023/01/29 07:21:20;;;;;;;8.60;4.67;;;;;;;-145.69;100.00;52769.19;5113142;28;20194;-82
2023/01/29 07:23:47;;;;;;;13.17;5.00;;;;;;;-145.69;100.00;52721.66;5113201;28;20228;-82
2023/01/29 07:26:13;;;;;;;8.07;4.27;;;;;;;-145.69;100.00;52731.56;5113082;28;20678;-82
2023/01/29 07:28:40;;;;;;;7.67;4.80;;;;;;;-145.69;100.00;52737.50;5112849;28;20568;-82
2023/01/29 07:31:08;;;;;;;7.27;4.23;;;;;;;-145.69;100.00;52713.72;5112905;28;20201;-81
2023/01/29 07:33:34;;;;;;;8.40;4.60;;;;;;;-145.69;100.00;52715.72;5113029;28;20204;-82
2023/01/29 07:36:01;;;;;;;8.53;4.47;;;;;;;-145.69;100.00;52741.47;5112840;28;20201;-81
2023/01/29 07:38:29;;;;;;;9.03;5.20;;;;;;;-145.69;100.00;52711.75;5112945;28;20208;-81
2023/01/29 07:40:55;;;;;;;8.20;5.00;;;;;;;-145.69;100.00;52695.91;5112721;28;20207;-80
2023/01/29 07:43:23;;;;;;;7.83;4.60;;;;;;;-145.69;100.00;52697.88;5112653;28;20225;-81
2023/01/29 07:45:50;;;;;;;8.07;4.33;;;;;;;-145.69;100.00;52745.41;5112552;28;20225;-79
2023/01/29 07:48:16;;;;;;;6.53;3.90;;;;;;;-145.69;100.00;52743.44;5112995;28;20185;-81
2023/01/29 07:50:43;;;;;;;7.20;4.13;;;;;;;-145.69;100.00;52711.75;5113210;28;20224;-81
2023/01/29 07:53:13;;;;;;;7.23;4.50;;;;;;;-145.69;100.00;52709.78;5116389;28;20197;-81
2023/01/29 07:55:44;;;;;;;8.17;4.17;;;;;;;-145.69;100.00;52713.72;5116800;28;20206;-81
2023/01/29 07:58:10;;;;;;;7.70;4.57;;;;;;;-145.69;100.00;52755.31;5116925;28;20192;-81
2023/01/29 08:00:37;;;;;;;7.93;4.80;;;;;;;-145.69;100.00;52743.44;5116751;28;20205;-81
2023/01/29 08:03:04;;;;;;;7.10;4.47;;;;;;;-145.69;100.00;52691.94;5116406;28;20716;-81
2023/01/29 08:05:30;;;;;;;8.50;4.43;;;;;;;-145.69;100.00;52721.66;5115653;28;20820;-82
2023/01/29 08:07:57;;;;;;;5.73;3.80;;;;;;;-145.69;100.00;52735.50;5116373;28;20395;-82
2023/01/29 08:10:24;;;;;;;7.10;4.33;;;;;;;-145.69;100.00;52729.56;5116321;28;20564;-82
2023/01/29 08:12:56;;;;;;;12.10;4.90;;;;;;;-145.69;100.00;52723.63;5115878;28;20189;-81
2023/01/29 08:15:22;;;;;;;57.17;25.83;;;;;;;-145.69;100.00;52703.81;5116409;28;20199;-82
2023/01/29 08:17:49;;;;;;;9.13;5.60;;;;;;;-145.69;100.00;52729.56;5116020;28;20660;-81
2023/01/29 08:20:16;;;;;;;7.33;4.23;;;;;;;-145.69;100.00;52713.72;5116125;28;20197;-79
2023/01/29 08:22:42;;;;;;;8.53;4.77;;;;;;;-145.69;100.00;52713.72;5115247;28;20706;-81
2023/01/29 08:25:09;;;;;;;8.10;4.07;;;;;;;-145.69;100.00;52695.91;5115609;28;20660;-82
2023/01/29 08:27:36;;;;;;;5.83;3.63;;;;;;;-145.69;100.00;52729.56;5116396;28;20284;-80
2023/01/29 08:30:05;;;;;;;7.53;4.27;;;;;;;-145.69;100.00;52717.69;5110730;28;20194;-82
2023/01/29 08:32:32;;;;;;;7.93;4.57;;;;;;;-145.69;100.00;52705.81;5116362;28;20199;-82
2023/01/29 08:34:58;;;;;;;6.93;4.07;;;;;;;-145.69;100.00;52709.78;5115364;28;20204;-82
2023/01/29 08:37:25;;;;;;;6.80;4.20;;;;;;;-145.69;100.00;52725.63;5115475;28;20568;-81
2023/01/29 08:39:53;;;;;;;6.67;4.23;;;;;;;-145.69;100.00;52717.69;5115960;28;20205;-81
2023/01/29 08:42:19;;;;;;;6.83;4.30;;;;;;;-145.69;100.00;52705.81;5115748;28;20316;-78
2023/01/29 08:44:46;;;;;;;6.17;3.70;;;;;;;-145.69;100.00;52733.53;5115609;28;20619;-79
2023/01/29 08:47:14;;;;;;;8.63;4.43;;;;;;;-145.69;100.00;52697.88;5115685;28;20194;-80
2023/01/29 08:49:41;;;;;;;6.00;4.00;;;;;;;-145.69;100.00;52705.81;5115414;28;20197;-81
2023/01/29 08:52:07;;;;;;;7.73;4.20;;;;;;;-145.69;100.00;52721.66;5115913;28;20671;-82
2023/01/29 08:54:33;;;;;;;4.97;3.57;;;;;;;-145.69;100.00;52733.53;5116042;28;20255;-81
2023/01/29 08:57:00;;;;;;;6.50;4.03;;;;;;;-145.69;100.00;52751.34;5115840;28;20683;-82
2023/01/29 08:59:26;;;;;;;7.97;4.57;;;;;;;-145.69;100.00;52717.69;5114580;28;20204;-82
2023/01/29 09:01:53;;;;;;;6.73;4.00;;;;;;;-145.69;100.00;52715.72;5115364;28;20216;-82
2023/01/29 09:04:20;;;;;;;12.23;6.17;;;;;;;-145.69;100.00;52733.53;5114729;28;20229;-82
2023/01/29 09:06:47;;;;;;;9.30;4.87;;;;;;;-145.69;100.00;52705.81;5114215;28;20189;-81
2023/01/29 09:09:14;;;;;;;7.80;4.37;;;;;;;-145.69;100.00;52686.00;5115156;28;20204;-80
2023/01/29 09:11:40;;;;;;;8.93;4.83;;;;;;;-145.69;100.00;52705.81;5115508;27;20702;-82
2023/01/29 09:14:08;;;;;;;8.30;4.73;;;;;;;-145.69;100.00;52729.56;5115035;28;20204;-81
2023/01/29 09:16:35;;;;;;;10.30;5.53;;;;;;;-145.69;100.00;52713.72;5114993;28;20259;-81
2023/01/29 09:19:01;;;;;;;8.03;4.47;;;;;;;-145.69;100.00;52711.75;5115263;28;20208;-80
2023/01/29 09:21:29;;;;;;;6.73;4.13;;;;;;;-145.69;100.00;52729.56;5115084;28;20204;-81
2023/01/29 09:23:55;;;;;;;5.83;3.83;;;;;;;-145.69;100.00;52725.63;5114976;28;20229;-81
2023/01/29 09:26:22;;;;;;;6.30;4.20;;;;;;;-145.69;100.00;52735.50;5114646;28;20201;-82
2023/01/29 09:28:48;;;;;;;7.43;4.30;;;;;;;-145.69;100.00;52723.63;5115181;28;20201;-81
2023/01/29 09:31:15;;;;;;;7.17;4.10;;;;;;;-145.69;100.00;52733.53;5114921;28;20202;-81
2023/01/29 09:33:41;;;;;;;8.53;4.63;;;;;;;-145.69;100.00;52695.91;5114412;28;20198;-82
2023/01/29 09:36:08;;;;;;;7.23;4.17;;;;;;;-145.69;100.00;52729.56;5114871;28;20193;-80
2023/01/29 09:38:36;;;;;;;8.03;4.40;;;;;;;-145.69;100.00;52699.88;5114295;28;20202;-81
2023/01/29 09:41:15;;;;;;;7.93;4.47;;;;;;;-145.69;100.00;52717.69;5114911;28;20194;-81
2023/01/29 09:43:47;;;;;;;6.87;4.20;;;;;;;-145.69;100.00;52741.47;5113904;28;20267;-81
2023/01/29 09:46:20;;;;;;;8.53;4.53;;;;;;;-145.69;100.00;52713.72;5114342;28;20260;-81
2023/01/29 09:48:51;;;;;;;8.30;4.27;;;;;;;-145.69;100.00;52705.81;5114741;27;20197;-81
2023/01/29 09:51:27;;;;;;;5.43;3.83;;;;;;;-145.69;100.00;52741.47;5114268;28;20565;-82
2023/01/29 09:54:03;;;;;;;5.30;3.40;;;;;;;-145.69;100.00;52701.84;5114142;28;20200;-81
2023/01/29 09:56:30;;;;;;;5.87;3.70;;;;;;;-145.69;100.00;52693.94;5114526;28;20201;-82
2023/01/29 09:58:59;;;;;;;5.47;3.37;;;;;;;-145.69;100.00;52729.56;5114467;28;20202;-82
2023/01/29 10:01:33;;;;;;;8.27;3.70;;;;;;;-145.69;100.00;52695.91;5113910;28;20197;-82
2023/01/29 10:04:17;;;;;;;6.30;3.90;;;;;;;-145.69;100.00;52707.78;5114217;28;20235;-82
2023/01/29 10:06:58;;;;;;;6.53;3.73;;;;;;;-145.69;100.00;52725.63;5113925;28;20200;-81
2023/01/29 10:09:45;;;;;;;5.60;4.00;;;;;;;-145.69;100.00;52687.97;5114275;28;20200;-81
2023/01/29 10:12:28;;;;;;;7.93;4.33;;;;;;;-145.69;100.00;52729.56;5113596;28;20648;-82
2023/01/29 10:15:03;;;;;;;8.80;4.50;;;;;;;-145.69;100.00;52713.72;5113088;28;20200;-81
2023/01/29 10:17:46;;;;;;;7.80;4.20;;;;;;;-145.69;100.00;52713.72;5113924;28;20204;-80
2023/01/29 10:20:28;;;;;;;6.73;4.13;;;;;;;-145.69;100.00;52695.91;5113694;28;20220;-78
2023/01/29 10:23:04;;;;;;;7.77;4.73;;;;;;;-145.69;100.00;52733.53;5113636;28;20230;-79
2023/01/29 10:25:36;;;;;;;6.90;4.57;;;;;;;-145.69;100.00;52686.00;5113952;28;20204;-79
2023/01/29 10:28:03;;;;;;;8.63;4.70;;;;;;;-145.69;100.00;52729.56;5095871;28;20552;-78
2023/01/29 10:30:33;;;;;;;8.53;4.90;;;;;;;-145.69;100.00;52705.81;5113660;28;20198;-78
2023/01/29 10:33:03;;;;;;;9.50;4.97;;;;;;;-145.69;100.00;52705.81;5113818;28;20209;-78
2023/01/29 10:35:35;;;;;;;7.80;4.60;;;;;;;-145.69;100.00;52733.53;5113569;28;20258;-79
2023/01/29 10:38:20;;;;;;;8.97;4.83;;;;;;;-145.69;100.00;52713.72;5113430;28;20212;-79
2023/01/29 10:40:56;;;;;;;7.30;4.17;;;;;;;-145.69;100.00;52695.91;5113462;28;20201;-80
2023/01/29 10:43:36;;;;;;;6.17;3.93;;;;;;;-145.69;100.00;52705.81;5113244;28;20685;-79
2023/01/29 10:46:14;;;;;;;7.23;4.50;;;;;;;-145.69;100.00;52713.72;5113512;28;20290;-79
2023/01/29 10:48:48;;;;;;;6.50;3.93;;;;;;;-145.69;100.00;52693.94;5112957;28;20224;-80
2023/01/29 10:51:38;;;;;;;7.00;3.83;;;;;;;-145.69;100.00;52693.94;5113935;28;20200;-81
2023/01/29 10:54:25;;;;;;;6.23;3.87;;;;;;;-145.69;100.00;52709.78;5113536;28;20586;-81
2023/01/29 10:57:05;;;;;;;6.07;3.33;;;;;;;-145.69;100.00;52697.88;5113693;28;20201;-81
2023/01/29 10:59:53;;;;;;;7.23;4.40;;;;;;;-145.69;100.00;52725.63;5113194;28;20201;-80
2023/01/29 11:02:21;;;;;;;8.57;4.80;;;;;;;-145.69;100.00;52656.28;5113698;28;20563;-81
2023/01/29 11:04:48;;;;;;;7.07;4.23;;;;;;;-145.69;100.00;52753.34;5113335;28;20313;-81
2023/01/29 11:07:17;;;;;;;6.87;4.17;;;;;;;-145.69;100.00;52713.72;5112814;28;20552;-80
2023/01/29 11:09:51;;;;;;;9.10;4.93;;;;;;;-145.69;100.00;52731.56;5113270;28;20684;-81
2023/01/29 11:12:29;;;;;;;5.93;3.97;;;;;;;-145.69;100.00;52723.63;5112690;28;20196;-77
2023/01/29 11:15:02;;;;;;;10.33;3.73;;;;;;;-145.69;100.00;52715.72;5109093;28;20212;-79
2023/01/29 11:17:28;;;;;;;6.73;4.27;;;;;;;-145.69;100.00;52662.22;5112762;28;20201;-77
2023/01/29 11:19:55;;;;;;;6.33;4.13;;;;;;;-145.69;100.00;52705.81;5112791;28;20213;-81
2023/01/29 11:22:26;;;;;;;6.60;4.00;;;;;;;-145.69;100.00;52705.81;5113105;28;20197;-76
2023/01/29 11:25:08;;;;;;;5.23;3.33;;;;;;;-145.69;100.00;52719.66;5112267;28;20253;-81
2023/01/29 11:27:43;;;;;;;6.50;3.97;;;;;;;-145.69;100.00;52713.72;5116012;28;20193;-80
2023/01/29 11:30:19;;;;;;;7.60;4.70;;;;;;;-145.69;100.00;52719.66;5117138;28;20201;-79
2023/01/29 11:32:51;;;;;;;8.40;4.40;;;;;;;-145.69;100.00;52709.78;5116495;28;20276;-80
2023/01/29 11:35:26;;;;;;;7.30;4.80;;;;;;;-145.69;100.00;52674.13;5117167;28;20275;-79
2023/01/29 11:38:05;;;;;;;8.37;5.70;;;;;;;-145.69;100.00;52682.03;5117028;28;20201;-79
2023/01/29 11:40:36;;;;;;;6.63;4.47;;;;;;;-145.69;100.00;52691.94;5116648;28;20201;-80
2023/01/29 11:43:34;;;;;;;8.33;5.20;;;;;;;-145.69;100.00;52680.06;5115808;28;20197;-80
2023/01/29 11:46:04;;;;;;;6.23;3.90;;;;;;;-145.69;100.00;52709.78;5103677;28;20260;-78
2023/01/29 11:48:35;;;;;;;7.40;4.37;;;;;;;-145.69;100.00;52701.84;5116364;28;20259;-78